Time;durP1;ratioP1;P1;durP2;ratioP2;P2;SDS_P1;SDS_P2;PMS_P1;PMS_P2;Temp;Humidity;BMP_temperature;BMP_pressure;BME280_temperature;BME280_humidity;BME280_pressure;Samples;Min_cycle;Max_cycle;Signal;HPM_P1;HPM_P2
2022/08/11 00:02:40;;;;;;;2.50;1.23;;;;;;;17.46;59.66;101724.47;6025441;28;20104;-67
2022/08/11 00:05:47;;;;;;;2.80;1.30;;;;;;;17.46;59.97;101726.31;6025538;28;20051;-65
2022/08/11 00:08:49;;;;;;;5.07;1.40;;;;;;;17.44;59.91;101713.09;6025605;28;20088;-65
2022/08/11 00:11:50;;;;;;;4.45;1.27;;;;;;;17.03;61.26;101716.69;6024567;28;20034;-65
2022/08/11 00:14:54;;;;;;;6.85;1.40;;;;;;;17.44;62.34;101721.13;6026711;28;20042;-64
2022/08/11 00:17:56;;;;;;;3.03;1.48;;;;;;;17.24;61.29;101720.59;6025276;28;20553;-67
2022/08/11 00:20:57;;;;;;;2.30;1.10;;;;;;;17.04;61.97;101731.78;6025997;28;20121;-65
2022/08/11 00:23:59;;;;;;;2.78;1.30;;;;;;;17.55;61.86;101712.78;6026412;28;20377;-64
2022/08/11 00:26:55;;;;;;;1.90;1.15;;;;;;;17.12;60.72;101721.06;6026771;28;20390;-67
2022/08/11 00:29:53;;;;;;;3.70;1.50;;;;;;;16.97;62.17;101733.41;6026510;28;20073;-67
2022/08/11 00:32:54;;;;;;;3.42;1.40;;;;;;;16.63;62.99;101744.16;6025310;28;20066;-65
2022/08/11 00:35:56;;;;;;;4.07;1.40;;;;;;;16.12;64.09;101733.41;6026167;28;20467;-66
2022/08/11 00:38:52;;;;;;;2.90;1.63;;;;;;;15.98;65.40;101732.19;6024666;28;20080;-65
2022/08/11 00:41:57;;;;;;;4.00;1.20;;;;;;;16.02;65.70;101738.88;6025585;28;20480;-64
2022/08/11 00:45:19;;;;;;;2.30;1.30;;;;;;;16.65;64.11;101736.81;6025555;28;20035;-65
2022/08/11 00:48:28;;;;;;;3.75;1.48;;;;;;;16.33;64.75;101729.41;6025995;28;20069;-65
2022/08/11 00:51:30;;;;;;;3.05;1.48;;;;;;;16.19;66.22;101738.00;6023189;28;20037;-65
2022/08/11 00:54:51;;;;;;;2.75;1.45;;;;;;;16.17;65.53;101718.56;6025558;28;20355;-65
2022/08/11 00:58:19;;;;;;;4.53;1.58;;;;;;;15.80;67.59;101736.69;6024168;28;20034;-65
2022/08/11 01:01:15;;;;;;;2.90;1.50;;;;;;;15.86;68.17;101741.44;6016480;28;20031;-67
2022/08/11 01:04:45;;;;;;;4.10;1.40;;;;;;;15.63;69.51;101740.22;6019314;28;20050;-65
2022/08/11 01:08:13;;;;;;;3.22;1.50;;;;;;;15.36;70.16;101733.09;6040393;28;20066;-67
2022/08/11 01:11:40;;;;;;;2.80;1.58;;;;;;;15.20;71.24;101735.59;6040188;28;20046;-66
2022/08/11 01:15:10;;;;;;;3.05;1.40;;;;;;;15.05;71.79;101748.63;6040559;28;20089;-66
2022/08/11 01:18:26;;;;;;;3.35;1.52;;;;;;;15.00;71.34;101737.53;6025430;28;20034;-65
2022/08/11 01:21:58;;;;;;;2.15;1.30;;;;;;;15.14;71.32;101739.72;6024540;28;20054;-65
2022/08/11 01:25:41;;;;;;;2.30;1.42;;;;;;;14.88;71.04;101733.41;6039943;28;20450;-66
2022/08/11 01:29:12;;;;;;;3.45;1.40;;;;;;;14.69;71.56;101728.16;5983306;28;20030;-65
2022/08/11 01:32:35;;;;;;;3.63;1.50;;;;;;;14.55;72.41;101737.50;6039390;28;20042;-66
2022/08/11 01:36:05;;;;;;;4.32;1.95;;;;;;;14.55;72.66;101745.50;6024675;28;20100;-65
2022/08/11 01:39:18;;;;;;;3.80;1.70;;;;;;;14.78;72.68;101735.28;6039957;28;20131;-64
2022/08/11 01:46:05;;;;;;;5.40;1.70;;;;;;;14.91;71.32;101746.47;6024855;28;20034;-65
2022/08/11 01:49:19;;;;;;;2.72;1.58;;;;;;;14.72;71.72;101749.22;6024502;28;20050;-66
2022/08/11 01:52:19;;;;;;;4.32;1.55;;;;;;;14.48;72.96;101740.91;6023495;28;20022;-66
2022/08/11 01:55:25;;;;;;;2.92;1.40;;;;;;;14.57;72.79;101740.84;6015838;28;20053;-64
2022/08/11 01:58:35;;;;;;;4.57;1.70;;;;;;;14.32;73.49;101730.00;6024050;28;20060;-65
2022/08/11 02:01:39;;;;;;;3.00;1.55;;;;;;;14.16;73.95;101736.72;6021589;28;20085;-66
2022/08/11 02:04:42;;;;;;;4.18;1.40;;;;;;;14.85;72.32;101739.03;6024089;28;20034;-66
2022/08/11 02:07:53;;;;;;;2.03;1.20;;;;;;;15.26;69.89;101733.16;6023143;28;20390;-66
2022/08/11 02:14:19;;;;;;;3.17;1.48;;;;;;;14.79;71.29;101736.94;6023101;28;20042;-67
2022/08/11 02:17:33;;;;;;;2.60;1.33;;;;;;;14.76;71.16;101734.56;6020822;28;20034;-67
2022/08/11 02:24:34;;;;;;;3.38;1.85;;;;;;;14.82;70.33;101728.66;6022533;28;20538;-66
2022/08/11 02:27:46;;;;;;;4.97;2.15;;;;;;;14.51;72.89;101737.94;6023735;28;20092;-67
2022/08/11 02:34:48;;;;;;;3.28;1.60;;;;;;;14.15;73.87;101740.41;6013263;28;20083;-67
2022/08/11 02:38:11;;;;;;;4.03;1.73;;;;;;;13.84;75.33;101735.38;6023180;28;20042;-65
2022/08/11 02:44:57;;;;;;;3.47;1.60;;;;;;;13.59;77.01;101742.97;6022217;28;20746;-65
2022/08/11 02:51:36;;;;;;;4.25;1.40;;;;;;;13.13;78.82;101728.66;6022032;28;20034;-66
2022/08/11 02:55:01;;;;;;;3.38;1.45;;;;;;;13.21;79.97;101734.13;6023059;28;20030;-66
2022/08/11 02:58:15;;;;;;;2.90;1.63;;;;;;;13.40;79.01;101742.13;6022788;28;20092;-66
2022/08/11 03:01:17;;;;;;;2.50;1.25;;;;;;;13.44;78.37;101736.38;6022488;28;20039;-64
2022/08/11 03:04:18;;;;;;;3.22;1.60;;;;;;;13.16;79.49;101728.34;6021637;28;20023;-65
2022/08/11 03:07:19;;;;;;;5.68;1.45;;;;;;;13.26;79.73;101729.22;6037824;28;20034;-67
2022/08/11 03:10:22;;;;;;;2.85;1.80;;;;;;;13.02;80.33;101738.38;6022397;28;20066;-67
2022/08/11 03:16:53;;;;;;;4.13;1.50;;;;;;;12.78;81.89;101735.22;6036118;28;20045;-67
2022/08/11 03:19:59;;;;;;;3.67;1.70;;;;;;;12.73;81.86;101732.13;6037758;28;20458;-66
2022/08/11 03:23:22;;;;;;;4.25;1.92;;;;;;;12.99;81.22;101737.84;6037345;28;20038;-66
2022/08/11 03:26:37;;;;;;;6.68;1.83;;;;;;;13.15;80.35;101737.34;6022625;28;20081;-65
2022/08/11 03:29:46;;;;;;;3.30;1.83;;;;;;;13.29;79.39;101726.28;6022339;28;20113;-66
2022/08/11 03:36:32;;;;;;;4.25;1.60;;;;;;;13.37;78.48;101732.56;6035047;28;20056;-66
2022/08/11 03:40:01;;;;;;;2.97;1.50;;;;;;;13.05;80.04;101745.25;6037856;28;20039;-66
2022/08/11 03:43:02;;;;;;;3.08;1.73;;;;;;;12.85;81.25;101741.72;6037340;28;20030;-65
2022/08/11 03:46:13;;;;;;;3.95;1.95;;;;;;;12.71;82.06;101744.75;6037480;28;20037;-67
2022/08/11 03:49:28;;;;;;;4.63;1.80;;;;;;;12.61;83.14;101743.03;6022373;28;20486;-66
2022/08/11 03:52:50;;;;;;;3.90;2.20;;;;;;;12.76;82.71;101750.50;6021465;28;20457;-67
2022/08/11 03:56:07;;;;;;;5.75;2.58;;;;;;;12.80;83.09;101751.09;6015893;28;20034;-67
2022/08/11 03:59:16;;;;;;;2.83;1.70;;;;;;;12.63;83.18;101741.91;6014138;28;20037;-66
2022/08/11 04:02:30;;;;;;;3.10;1.92;;;;;;;12.82;83.40;101749.97;6021619;28;20120;-65
2022/08/11 04:05:49;;;;;;;8.05;2.20;;;;;;;13.24;81.06;101749.81;6022115;28;20038;-64
2022/08/11 04:09:08;;;;;;;6.45;1.75;;;;;;;13.07;81.32;101754.81;6016202;28;20476;-67
2022/08/11 04:12:21;;;;;;;2.97;1.45;;;;;;;12.84;81.94;101734.69;6016308;28;20227;-64
2022/08/11 04:19:15;;;;;;;5.32;1.65;;;;;;;13.73;79.59;101744.38;6021988;28;20036;-65
2022/08/11 04:22:19;;;;;;;3.20;1.95;;;;;;;13.72;79.88;101742.72;6020920;28;20030;-66
2022/08/11 04:26:05;;;;;;;3.63;1.83;;;;;;;13.77;79.18;101744.94;6023836;28;20034;-65
2022/08/11 04:29:23;;;;;;;4.13;1.77;;;;;;;13.90;78.13;101742.81;6000744;28;20118;-64
2022/08/11 04:32:42;;;;;;;4.40;2.08;;;;;;;13.87;79.07;101745.75;6025365;28;20062;-67
2022/08/11 04:35:56;;;;;;;5.03;1.90;;;;;;;14.31;77.44;101739.78;6017671;28;20037;-64
2022/08/11 04:39:09;;;;;;;4.93;1.98;;;;;;;14.36;77.62;101736.72;6025269;28;20109;-64
2022/08/11 04:46:02;;;;;;;;;;;;;;;15.70;75.08;101739.47;6026287;28;20031;-68
2022/08/11 05:05:29;;;;;;;3.78;2.13;;;;;;;18.10;62.58;101737.06;6025534;28;20038;-64
2022/08/11 05:07:53;;;;;;;4.15;2.10;;;;;;;17.75;63.87;101740.09;6014127;28;20077;-67
2022/08/11 05:11:23;;;;;;;5.13;1.75;;;;;;;18.81;60.92;101730.84;6024860;28;20061;-67
2022/08/11 05:34:53;;;;;;;3.97;2.13;;;;;;;18.14;63.27;101718.78;6016982;28;20058;-66
2022/08/11 05:57:27;;;;;;;4.20;2.20;;;;;;;19.93;59.01;101732.00;6024248;28;20038;-66
2022/08/11 06:00:23;;;;;;;8.57;2.35;;;;;;;20.38;59.24;101735.66;6022530;28;20045;-69
2022/08/11 06:03:27;;;;;;;8.90;2.72;;;;;;;20.63;57.99;101728.94;6023139;28;20026;-67
2022/08/11 06:06:26;;;;;;;6.10;2.25;;;;;;;20.66;58.18;101728.56;6022837;28;20113;-65
2022/08/11 06:09:34;;;;;;;5.72;2.33;;;;;;;20.86;57.34;101726.97;6015773;28;20489;-68
2022/08/11 06:12:31;;;;;;;4.90;2.47;;;;;;;21.05;58.19;101734.47;6018088;28;20482;-66
2022/08/11 06:15:27;;;;;;;5.55;2.25;;;;;;;21.34;56.67;101720.94;6024059;28;20062;-67
2022/08/11 06:18:22;;;;;;;4.97;2.40;;;;;;;21.77;55.71;101734.41;6023703;28;20030;-69
2022/08/11 06:21:19;;;;;;;6.85;2.60;;;;;;;21.58;54.53;101724.28;6022218;28;20092;-63
2022/08/11 06:24:14;;;;;;;4.38;2.15;;;;;;;21.81;54.15;101724.91;6015191;28;20047;-64
2022/08/11 06:27:10;;;;;;;4.28;2.33;;;;;;;21.67;54.12;101720.41;6019151;28;20080;-67
2022/08/11 06:30:12;;;;;;;4.10;2.13;;;;;;;21.45;55.37;101727.69;6023128;28;20461;-63
2022/08/11 06:33:17;;;;;;;4.63;2.35;;;;;;;21.50;55.32;101735.22;6023339;28;20037;-65
2022/08/11 06:36:22;;;;;;;3.50;2.15;;;;;;;21.16;56.12;101725.94;6023831;28;20434;-64
2022/08/11 06:39:27;;;;;;;5.72;2.70;;;;;;;21.56;55.26;101731.72;6021960;28;20039;-63
2022/08/11 06:42:44;;;;;;;5.68;2.47;;;;;;;22.35;52.42;101736.78;6014548;28;20034;-64
2022/08/11 06:45:50;;;;;;;4.53;2.15;;;;;;;22.23;53.29;101730.25;6013304;28;20367;-67
2022/08/11 06:48:46;;;;;;;5.30;2.47;;;;;;;22.30;53.33;101733.00;6021505;28;20034;-66
2022/08/11 06:51:46;;;;;;;6.45;2.95;;;;;;;22.40;52.83;101739.72;6021156;28;20555;-66
2022/08/11 06:55:05;;;;;;;3.85;2.40;;;;;;;22.52;52.48;101738.16;6023519;28;20027;-66
2022/08/11 07:01:26;;;;;;;5.25;2.28;;;;;;;23.63;49.81;101740.50;6021702;28;20030;-66
2022/08/11 07:04:39;;;;;;;4.63;2.50;;;;;;;24.16;48.29;101740.56;6021493;28;20521;-64
2022/08/11 07:31:36;;;;;;;7.65;2.78;;;;;;;24.32;46.69;101740.09;6034931;28;20042;-65
2022/08/11 07:34:35;;;;;;;9.98;2.97;;;;;;;23.77;48.22;101735.09;6022402;28;20097;-63
2022/08/11 07:37:32;;;;;;;7.70;2.63;;;;;;;24.14;46.44;101731.78;6037336;28;20382;-66
2022/08/11 07:40:27;;;;;;;6.38;2.40;;;;;;;24.55;46.59;101745.88;6021978;28;20421;-64
2022/08/11 07:43:23;;;;;;;10.02;2.65;;;;;;;24.32;46.58;101734.69;6037761;28;20085;-65
2022/08/11 07:52:51;;;;;;;14.88;3.20;;;;;;;24.59;47.27;101722.72;6020644;28;20105;-65
2022/08/11 07:55:48;;;;;;;9.65;2.45;;;;;;;25.04;45.80;101733.63;6022015;28;20031;-64
2022/08/11 08:18:12;;;;;;;4.45;1.90;;;;;;;25.66;44.34;101735.59;6026809;28;20034;-66
2022/08/11 08:21:11;;;;;;;9.30;2.35;;;;;;;26.16;43.33;101733.75;6025688;28;20038;-64
2022/08/11 08:24:06;;;;;;;6.43;2.53;;;;;;;26.68;40.86;101730.50;6026303;28;20033;-66
2022/08/11 08:27:02;;;;;;;4.20;2.47;;;;;;;26.86;40.72;101730.50;6023561;28;20109;-64
2022/08/11 08:33:23;;;;;;;7.05;2.58;;;;;;;27.15;40.58;101740.59;6025503;28;20038;-64
2022/08/11 08:36:22;;;;;;;4.53;2.30;;;;;;;27.29;38.27;101724.09;6024693;28;20496;-64
2022/08/11 08:39:20;;;;;;;5.57;2.45;;;;;;;27.12;38.95;101735.59;6025979;28;20045;-64
2022/08/11 08:42:23;;;;;;;4.22;2.05;;;;;;;27.53;38.72;101731.28;6025571;28;20046;-65
2022/08/11 08:45:19;;;;;;;5.80;2.72;;;;;;;26.68;39.44;101711.44;6024568;28;20149;-65
2022/08/11 08:48:15;;;;;;;7.07;2.58;;;;;;;26.94;39.51;101722.00;6025567;28;20065;-65
2022/08/11 08:54:36;;;;;;;3.15;1.80;;;;;;;27.71;37.38;101714.84;6024834;28;20045;-65
2022/08/11 08:57:36;;;;;;;5.82;2.35;;;;;;;27.92;36.27;101708.00;6024630;28;20501;-65
2022/08/11 09:00:40;;;;;;;4.47;2.25;;;;;;;27.65;36.09;101713.06;6025015;28;20042;-64
2022/08/11 09:03:37;;;;;;;3.35;2.30;;;;;;;27.58;37.00;101717.78;6024352;28;20038;-67
2022/08/11 09:06:32;;;;;;;3.75;1.90;;;;;;;28.03;35.12;101707.19;6024368;28;20492;-66
2022/08/11 09:09:28;;;;;;;7.60;2.30;;;;;;;28.30;35.03;101706.50;6040163;28;20038;-63
2022/08/11 09:12:28;;;;;;;4.05;2.58;;;;;;;28.67;34.07;101704.31;6039282;28;20084;-66
2022/08/11 09:15:24;;;;;;;4.20;2.10;;;;;;;28.68;33.52;101702.41;6023925;28;20297;-66
2022/08/11 09:18:20;;;;;;;5.35;2.03;;;;;;;28.53;34.29;101700.19;6024214;28;20038;-64
2022/08/11 09:21:19;;;;;;;4.47;2.40;;;;;;;29.02;33.95;101704.22;6024782;28;20426;-67
2022/08/11 09:27:30;;;;;;;3.72;2.08;;;;;;;29.16;33.08;101704.75;6037983;28;20031;-66
2022/08/11 09:30:26;;;;;;;7.07;1.92;;;;;;;28.89;31.82;101699.03;6039032;28;20378;-64
2022/08/11 09:33:23;;;;;;;4.05;1.92;;;;;;;29.00;30.71;101689.94;6040034;28;20092;-64
2022/08/11 09:46:26;;;;;;;4.38;2.00;;;;;;;29.57;29.18;101681.75;6037636;28;20034;-67
2022/08/11 09:49:21;;;;;;;4.72;2.35;;;;;;;28.94;30.43;101674.56;6024280;28;20073;-64
2022/08/11 09:52:17;;;;;;;5.23;1.90;;;;;;;28.89;30.10;101674.47;6023837;28;20038;-66
2022/08/11 09:55:14;;;;;;;3.78;2.10;;;;;;;29.31;28.80;101662.16;6023278;28;20309;-64
2022/08/11 09:58:12;;;;;;;3.38;2.05;;;;;;;29.79;29.43;101660.75;6023093;28;20041;-66
2022/08/11 10:01:25;;;;;;;4.25;2.25;;;;;;;29.50;29.12;101652.66;6022220;28;20040;-66
2022/08/11 10:04:30;;;;;;;6.30;2.00;;;;;;;29.43;28.85;101662.09;6023209;28;20033;-67
2022/08/11 10:07:25;;;;;;;5.60;1.88;;;;;;;29.61;27.72;101664.56;6024080;28;20104;-65
2022/08/11 10:10:21;;;;;;;4.65;1.88;;;;;;;29.69;27.29;101652.38;6023768;28;20041;-65
2022/08/11 10:13:20;;;;;;;5.18;2.00;;;;;;;29.81;27.55;101643.06;6015586;28;20364;-66
2022/08/11 10:16:15;;;;;;;4.97;2.03;;;;;;;30.09;26.96;101636.59;6023072;28;20045;-65
2022/08/11 10:19:11;;;;;;;5.63;2.00;;;;;;;30.32;27.43;101630.06;6023979;28;20434;-67
2022/08/11 10:28:35;;;;;;;3.05;1.83;;;;;;;30.05;26.99;101630.00;6023487;28;20026;-65
2022/08/11 10:34:46;;;;;;;5.72;1.98;;;;;;;29.66;26.72;101622.78;6022371;28;20046;-65
2022/08/11 10:37:43;;;;;;;4.55;1.92;;;;;;;30.31;26.15;101618.28;6023408;28;20483;-65
2022/08/11 10:40:40;;;;;;;3.17;1.85;;;;;;;30.05;26.72;101621.78;6014167;28;20035;-64
2022/08/11 10:43:37;;;;;;;3.17;1.77;;;;;;;30.45;26.63;101610.56;6020153;28;20093;-66
2022/08/11 10:51:11;;;;;;;3.80;1.70;;;;;;;30.64;25.90;101611.88;6022879;28;20054;-67
2022/08/11 10:59:32;;;;;;;4.20;1.92;;;;;;;30.18;26.70;101598.69;6035932;28;20478;-67
2022/08/11 11:02:28;;;;;;;4.30;2.08;;;;;;;30.53;24.61;101596.41;6022527;28;20153;-65
2022/08/11 11:05:28;;;;;;;5.55;2.25;;;;;;;30.11;25.91;101601.63;6015841;28;20371;-66
2022/08/11 11:18:32;;;;;;;3.70;2.00;;;;;;;30.06;25.54;101585.09;6035334;28;20038;-65
2022/08/11 11:21:27;;;;;;;3.78;1.83;;;;;;;30.40;24.33;101596.81;6036528;28;20034;-65
2022/08/11 11:24:41;;;;;;;4.97;1.92;;;;;;;30.28;25.20;101585.94;6022714;28;20050;-65
2022/08/11 11:27:47;;;;;;;5.82;2.15;;;;;;;30.38;25.22;101585.28;6037926;28;20153;-66
2022/08/11 11:31:01;;;;;;;6.80;1.98;;;;;;;30.71;25.09;101589.78;6036735;28;20518;-65
2022/08/11 11:34:09;;;;;;;3.83;2.10;;;;;;;30.78;24.17;101587.63;6036925;28;20402;-65
2022/08/11 11:37:05;;;;;;;6.13;1.88;;;;;;;30.88;24.05;101576.78;6037216;28;20474;-66
2022/08/11 11:40:05;;;;;;;8.80;2.05;;;;;;;31.05;23.25;101583.84;6022269;28;20030;-65
2022/08/11 11:43:01;;;;;;;5.40;2.10;;;;;;;30.52;24.98;101589.28;6022451;28;20034;-65
2022/08/11 11:45:56;;;;;;;4.45;1.83;;;;;;;30.63;25.01;101575.44;6022111;28;20069;-64
2022/08/11 11:48:53;;;;;;;5.65;2.13;;;;;;;30.23;25.00;101579.56;6037806;28;20443;-65
2022/08/11 11:51:51;;;;;;;6.88;2.08;;;;;;;30.09;25.77;101573.66;6021332;28;20042;-66
2022/08/11 11:54:49;;;;;;;6.35;1.88;;;;;;;30.47;24.67;101570.03;6022320;28;20462;-65
2022/08/11 12:01:18;;;;;;;4.47;1.98;;;;;;;30.54;25.10;101568.78;6020393;28;20030;-67
2022/08/11 12:04:14;;;;;;;3.65;1.92;;;;;;;31.43;24.10;101568.22;6022010;28;20035;-66
2022/08/11 12:10:24;;;;;;;6.28;2.05;;;;;;;31.94;23.41;101552.91;6020836;28;20038;-66
2022/08/11 12:16:35;;;;;;;2.33;1.73;;;;;;;31.80;23.34;101536.13;6022024;28;20034;-65
2022/08/11 12:19:31;;;;;;;2.95;1.90;;;;;;;31.27;23.91;101547.28;6013630;28;20031;-64
2022/08/11 12:28:57;;;;;;;4.22;1.92;;;;;;;31.72;23.31;101534.72;6019604;28;20360;-65
2022/08/11 12:31:57;;;;;;;4.60;1.70;;;;;;;31.74;22.85;101527.03;6021559;28;20038;-65
2022/08/11 12:34:55;;;;;;;4.95;1.85;;;;;;;31.66;22.87;101524.78;6022123;28;20034;-65
2022/08/11 12:37:54;;;;;;;7.63;1.83;;;;;;;31.93;22.62;101529.34;6021578;28;20105;-66
2022/08/11 12:51:55;;;;;;;5.45;1.70;;;;;;;31.71;23.94;101513.03;6001729;28;20445;-65
2022/08/11 12:54:16;;;;;;;4.28;2.10;;;;;;;32.17;22.92;101486.63;6024542;28;20471;-65
2022/08/11 13:07:13;;;;;;;3.58;2.00;;;;;;;32.05;21.97;101472.28;6025370;28;20385;-66
2022/08/11 13:10:10;;;;;;;2.47;1.60;;;;;;;32.20;22.15;101466.88;6023775;28;20034;-65
2022/08/11 13:13:07;;;;;;;6.70;1.90;;;;;;;32.59;22.03;101470.78;6023892;28;20031;-65
2022/08/11 13:16:02;;;;;;;4.72;1.92;;;;;;;32.24;22.16;101477.03;6025411;28;20034;-67
2022/08/11 13:18:59;;;;;;;6.88;2.20;;;;;;;32.40;21.92;101475.13;6021855;28;20413;-65
2022/08/11 13:21:56;;;;;;;3.42;1.90;;;;;;;32.32;21.73;101456.44;6024826;28;20377;-65
2022/08/11 13:24:54;;;;;;;3.90;1.70;;;;;;;31.78;22.91;101459.56;6017193;28;20515;-66
2022/08/11 13:27:51;;;;;;;4.20;2.13;;;;;;;31.88;22.64;101460.69;6023775;28;20092;-66
2022/08/11 13:34:07;;;;;;;4.20;1.83;;;;;;;31.56;22.85;101453.41;6025096;28;20061;-66
2022/08/11 13:37:04;;;;;;;3.63;1.95;;;;;;;31.63;23.18;101454.03;6023752;28;20080;-66
2022/08/11 13:40:00;;;;;;;4.32;2.20;;;;;;;31.46;23.26;101464.34;6024449;28;20065;-65
2022/08/11 13:42:57;;;;;;;4.57;2.00;;;;;;;31.09;22.61;101458.06;6024483;28;20068;-65
2022/08/11 13:46:17;;;;;;;3.78;1.67;;;;;;;31.04;22.84;101455.25;6023506;28;20037;-66
2022/08/11 13:49:09;;;;;;;3.05;1.83;;;;;;;31.13;22.78;101446.28;6023865;28;20065;-65
2022/08/11 13:52:06;;;;;;;6.47;2.00;;;;;;;32.00;21.38;101442.06;6023977;28;20044;-66
2022/08/11 13:55:02;;;;;;;2.60;1.52;;;;;;;32.36;20.65;101449.31;6022872;28;20042;-65
2022/08/11 13:57:58;;;;;;;7.25;1.67;;;;;;;32.69;20.11;101437.00;6023046;28;20497;-65
2022/08/11 14:00:53;;;;;;;2.47;1.70;;;;;;;32.26;20.88;101441.06;6019000;28;20030;-66
2022/08/11 14:03:49;;;;;;;5.07;1.80;;;;;;;32.44;20.91;101443.28;6017000;28;20270;-67
2022/08/11 14:06:49;;;;;;;3.90;1.63;;;;;;;32.65;20.91;101417.50;6023014;28;20034;-67
2022/08/11 14:09:45;;;;;;;3.38;1.55;;;;;;;32.83;20.71;101416.91;6022586;28;20050;-65
2022/08/11 14:16:01;;;;;;;3.25;1.60;;;;;;;32.77;19.59;101409.81;6020106;28;20038;-66
2022/08/11 14:19:00;;;;;;;3.28;1.80;;;;;;;32.90;19.98;101422.16;6020614;28;20650;-65
2022/08/11 14:22:07;;;;;;;;;;;;;;;32.98;19.73;101416.09;6023405;28;20071;-67
2022/08/11 14:25:03;;;;;;;2.65;1.67;;;;;;;32.87;20.42;101409.78;6016173;28;19997;-67
2022/08/11 14:27:58;;;;;;;6.47;2.00;;;;;;;32.82;20.08;101401.56;6022234;28;20118;-67
2022/08/11 14:30:54;;;;;;;6.65;1.88;;;;;;;32.86;20.14;101407.28;6023039;28;20041;-66
2022/08/11 14:33:51;;;;;;;2.53;1.50;;;;;;;33.28;19.62;101410.53;6022222;28;20072;-67
2022/08/11 14:36:51;;;;;;;4.00;2.00;;;;;;;33.39;19.79;101416.84;6023468;28;20034;-66
2022/08/11 14:39:53;;;;;;;4.15;2.28;;;;;;;33.09;19.66;101408.66;6018066;28;20445;-65
2022/08/11 14:49:16;;;;;;;2.63;1.75;;;;;;;33.33;19.59;101398.69;6022006;28;20034;-67
2022/08/11 14:52:14;;;;;;;4.97;1.75;;;;;;;32.71;19.31;101405.41;6022698;28;20030;-66
2022/08/11 14:58:27;;;;;;;3.97;2.30;;;;;;;34.26;17.79;101371.25;6022341;28;20441;-68
2022/08/11 15:04:37;;;;;;;2.83;1.65;;;;;;;34.01;18.63;101383.25;6021898;28;20034;-67
2022/08/11 15:07:33;;;;;;;3.78;1.92;;;;;;;34.04;18.61;101369.75;6022610;28;20137;-66
2022/08/11 15:10:28;;;;;;;4.97;1.80;;;;;;;33.42;19.51;101373.09;6016447;28;20034;-66
2022/08/11 15:13:24;;;;;;;5.97;1.80;;;;;;;33.69;18.57;101372.72;6021405;28;20540;-66
2022/08/11 15:19:35;;;;;;;4.78;1.70;;;;;;;33.60;18.98;101374.41;6008931;28;20073;-67
2022/08/11 15:25:48;;;;;;;3.47;1.63;;;;;;;32.89;19.13;101358.09;6020627;28;20026;-66
2022/08/11 15:38:35;;;;;;;2.47;1.73;;;;;;;33.87;17.83;101341.75;6021418;28;20034;-66
2022/08/11 15:48:14;;;;;;;4.28;1.90;;;;;;;32.89;18.81;101347.09;6021816;28;20066;-67
2022/08/11 15:51:13;;;;;;;4.30;1.77;;;;;;;33.03;18.36;101352.00;6020508;28;20049;-66
2022/08/11 15:54:17;;;;;;;4.13;1.80;;;;;;;33.67;17.54;101339.16;6016266;28;20073;-68
2022/08/11 16:04:10;;;;;;;2.20;1.60;;;;;;;33.23;18.54;101335.47;6021059;28;20381;-65
2022/08/11 16:04:15;;;;;;;3.88;1.77;;;;;;;33.06;18.30;101324.00;6013037;28;20500;-68
2022/08/11 16:07:13;;;;;;;5.43;1.50;;;;;;;32.89;18.71;101330.59;6022560;28;20437;-68
2022/08/11 16:10:11;;;;;;;4.32;1.85;;;;;;;33.42;18.24;101323.56;6021331;28;20030;-68
2022/08/11 16:16:16;;;;;;;9.55;1.80;;;;;;;33.70;18.23;101326.75;6022182;28;20030;-65
2022/08/11 16:19:12;;;;;;;2.38;1.75;;;;;;;33.32;19.25;101322.81;6020915;28;20089;-66
2022/08/11 16:22:10;;;;;;;4.25;1.80;;;;;;;32.98;19.53;101323.44;6023288;28;20041;-68
2022/08/11 16:25:10;;;;;;;4.43;1.70;;;;;;;32.81;19.80;101311.94;6024836;28;20386;-68
2022/08/11 16:28:06;;;;;;;6.45;1.77;;;;;;;32.12;20.05;101309.00;6026529;28;20046;-67
2022/08/11 16:31:01;;;;;;;24.77;2.60;;;;;;;32.02;20.49;101314.44;6024245;28;20035;-64
2022/08/11 16:33:57;;;;;;;3.05;1.67;;;;;;;32.83;19.94;101317.16;6024974;28;20041;-65
2022/08/11 16:40:09;;;;;;;5.90;1.80;;;;;;;32.83;19.98;101306.97;6024660;28;20386;-67
2022/08/11 16:49:36;;;;;;;3.13;1.60;;;;;;;32.42;19.67;101299.91;6024670;28;20086;-64
2022/08/11 16:52:32;;;;;;;5.53;1.83;;;;;;;31.10;21.94;101297.97;6025502;28;20061;-65
2022/08/11 16:55:33;;;;;;;4.15;1.80;;;;;;;30.52;22.71;101309.97;6017387;28;20045;-64
2022/08/11 17:01:53;;;;;;;5.40;1.90;;;;;;;29.77;23.19;101313.63;6025375;28;20549;-66
2022/08/11 17:14:57;;;;;;;4.97;1.92;;;;;;;29.58;23.94;101308.75;6025249;28;20082;-66
2022/08/11 17:17:54;;;;;;;2.33;1.50;;;;;;;29.36;23.82;101295.13;6016730;28;20407;-65
2022/08/11 17:20:50;;;;;;;3.72;1.70;;;;;;;29.41;23.55;101306.09;6020877;28;20387;-66
2022/08/11 17:23:59;;;;;;;7.30;1.63;;;;;;;29.33;24.13;101301.91;6024250;28;20034;-65
2022/08/11 17:26:56;;;;;;;4.38;1.80;;;;;;;29.22;23.15;101278.28;6023975;28;20069;-66
2022/08/11 17:29:54;;;;;;;5.45;1.70;;;;;;;29.20;23.84;101291.34;6023647;28;20087;-67
2022/08/11 17:36:04;;;;;;;5.05;1.73;;;;;;;29.05;24.62;101293.91;6014776;28;20043;-66
2022/08/11 17:39:00;;;;;;;4.78;1.73;;;;;;;28.91;24.31;101282.53;6023700;28;20027;-67
2022/08/11 17:48:40;;;;;;;4.47;1.38;;;;;;;28.68;25.43;101288.19;6023444;28;20038;-66
2022/08/11 18:01:20;;;;;;;3.03;1.80;;;;;;;28.21;26.04;101279.53;6023688;28;20293;-66
2022/08/11 18:04:16;;;;;;;3.30;1.77;;;;;;;28.20;26.42;101294.25;6023072;28;20052;-66
